Time;durP1;ratioP1;P1;durP2;ratioP2;P2;SDS_P1;SDS_P2;PMS_P1;PMS_P2;Temp;Humidity;BMP_temperature;BMP_pressure;BME280_temperature;BME280_humidity;BME280_pressure;Samples;Min_cycle;Max_cycle;Signal;HPM_P1;HPM_P2
2022/01/12 00:01:07;;;;;;;22.55;10.50;;;;;;;2.17;82.93;103511.16;5089419;28;20048;-69
2022/01/12 00:03:33;;;;;;;24.23;9.70;;;;;;;2.20;82.70;103493.88;5094075;28;20059;-67
2022/01/12 00:06:05;;;;;;;20.75;9.88;;;;;;;2.20;82.64;103484.38;5095280;28;20139;-65
2022/01/12 00:08:32;;;;;;;15.98;9.88;;;;;;;2.22;82.74;103492.25;5090852;28;20052;-67
2022/01/12 00:11:03;;;;;;;18.67;9.75;;;;;;;2.23;82.85;103507.97;5097596;28;20044;-69
2022/01/12 00:13:30;;;;;;;19.60;9.52;;;;;;;2.25;82.89;103516.72;5093641;28;20079;-72
2022/01/12 00:15:57;;;;;;;24.25;10.90;;;;;;;2.28;82.82;103522.06;5085931;28;20471;-67
2022/01/12 00:18:25;;;;;;;14.35;9.20;;;;;;;2.28;82.93;103522.06;5096862;28;20056;-68
2022/01/12 00:20:51;;;;;;;17.42;9.82;;;;;;;2.28;82.84;103529.00;5097480;28;20052;-67
2022/01/12 00:23:18;;;;;;;17.25;9.35;;;;;;;2.29;82.78;103533.41;5092848;28;20093;-68
2022/01/12 00:34:31;;;;;;;22.73;10.32;;;;;;;2.30;82.76;103538.66;5016512;28;20049;-72
2022/01/12 00:36:57;;;;;;;19.40;9.77;;;;;;;2.32;82.78;103549.13;5070929;28;20056;-72
2022/01/12 00:39:24;;;;;;;18.60;10.15;;;;;;;2.33;82.86;103545.72;5095837;28;20079;-67
2022/01/12 00:41:52;;;;;;;18.13;9.68;;;;;;;2.35;82.75;103545.78;5093926;28;20059;-67
2022/01/12 00:44:32;;;;;;;18.42;9.88;;;;;;;2.35;82.97;103551.91;5096440;28;20114;-66
2022/01/12 00:46:59;;;;;;;16.92;9.73;;;;;;;2.36;82.83;103557.97;5096598;28;20115;-67
2022/01/12 00:49:26;;;;;;;20.80;10.00;;;;;;;2.37;82.76;103552.88;5087185;28;20039;-66
2022/01/12 00:51:54;;;;;;;19.00;9.60;;;;;;;2.38;82.92;103553.75;5084683;28;20051;-69
2022/01/12 00:54:23;;;;;;;20.98;10.35;;;;;;;2.40;82.86;103552.13;5095896;28;20037;-70
2022/01/12 00:56:50;;;;;;;20.35;9.75;;;;;;;2.40;82.79;103555.59;5089635;28;20052;-68
2022/01/12 00:59:18;;;;;;;18.08;9.38;;;;;;;2.43;82.88;103563.56;5094252;28;20446;-71
2022/01/12 01:01:45;;;;;;;20.98;10.20;;;;;;;2.46;82.63;103563.72;5090088;28;20060;-70
2022/01/12 01:04:12;;;;;;;18.70;10.10;;;;;;;2.47;82.45;103564.59;5095403;28;20055;-68
2022/01/12 01:06:38;;;;;;;22.98;10.40;;;;;;;2.50;82.37;103569.94;5089349;28;20053;-72
2022/01/12 01:09:06;;;;;;;20.35;10.35;;;;;;;2.54;82.32;103576.19;5092168;28;20041;-67
2022/01/12 01:11:34;;;;;;;20.10;10.15;;;;;;;2.55;82.17;103576.25;5092951;28;20791;-68
2022/01/12 01:14:13;;;;;;;23.15;10.27;;;;;;;2.56;82.06;103577.16;5086586;28;20141;-68
2022/01/12 01:27:31;;;;;;;20.13;10.43;;;;;;;2.60;82.25;103568.66;5095270;28;20045;-68
2022/01/12 01:29:58;;;;;;;24.20;11.13;;;;;;;2.59;82.32;103572.09;5092197;28;20048;-69
2022/01/12 01:32:26;;;;;;;21.73;11.05;;;;;;;2.57;82.40;103560.72;5094738;28;20511;-67
2022/01/12 01:34:53;;;;;;;21.13;10.63;;;;;;;2.56;82.32;103562.41;5093728;28;20406;-66
2022/01/12 01:37:20;;;;;;;22.13;11.52;;;;;;;2.53;82.45;103564.91;5090231;28;20098;-67
2022/01/12 01:39:49;;;;;;;22.83;11.90;;;;;;;2.49;82.56;103568.16;5108738;28;20059;-74
2022/01/12 01:42:27;;;;;;;27.00;12.23;;;;;;;2.47;82.67;103577.63;5084014;28;20049;-66
2022/01/12 01:55:43;;;;;;;20.70;11.05;;;;;;;2.44;83.20;103591.38;5096143;28;20079;-65
2022/01/12 01:58:12;;;;;;;21.65;11.48;;;;;;;2.46;83.18;103586.25;5091573;28;20434;-67
2022/01/12 02:00:41;;;;;;;24.35;12.07;;;;;;;2.47;83.14;103580.22;5086030;28;20131;-68
2022/01/12 02:03:13;;;;;;;23.90;12.52;;;;;;;2.46;83.14;103573.22;5085886;28;20060;-68
2022/01/12 02:05:46;;;;;;;20.23;11.70;;;;;;;2.46;83.06;103566.31;5094622;28;20059;-69
2022/01/12 02:08:14;;;;;;;22.50;11.85;;;;;;;2.46;83.18;103566.31;5092858;28;20049;-68
2022/01/12 02:10:58;;;;;;;20.98;11.20;;;;;;;2.47;83.25;103569.81;5087798;28;20048;-68
2022/01/12 02:13:26;;;;;;;22.50;12.23;;;;;;;2.47;83.27;103554.19;5081751;28;20048;-68
2022/01/12 02:15:54;;;;;;;24.90;12.60;;;;;;;2.47;83.31;103546.38;5087934;28;20037;-66
2022/01/12 02:35:34;;;;;;;21.55;12.82;;;;;;;2.51;83.22;103566.53;5088332;28;20053;-68
2022/01/12 02:39:50;;;;;;;25.65;13.63;;;;;;;2.52;83.27;103570.94;5088128;28;20052;-65
2022/01/12 02:40:53;;;;;;;25.00;12.52;;;;;;;2.53;83.30;103571.81;5094783;28;20486;-70
2022/01/12 02:43:43;;;;;;;24.83;13.25;;;;;;;2.55;83.10;103575.38;5089928;28;20052;-75
2022/01/12 02:54:53;;;;;;;27.13;14.00;;;;;;;2.58;83.28;103576.41;5049522;28;20049;-70
2022/01/12 02:57:24;;;;;;;23.85;13.25;;;;;;;2.60;83.13;103579.06;5082336;28;20554;-71
2022/01/12 03:00:04;;;;;;;22.33;12.10;;;;;;;2.59;83.10;103586.00;5091531;28;20573;-67
2022/01/12 03:02:38;;;;;;;21.63;12.15;;;;;;;2.58;82.95;103585.94;5092753;28;20041;-70
2022/01/12 03:08:02;;;;;;;23.48;13.60;;;;;;;2.60;83.08;103597.31;5086695;28;20068;-67
2022/01/12 03:10:30;;;;;;;25.42;13.15;;;;;;;2.58;82.55;103612.00;5092642;28;20933;-67
2022/01/12 03:12:56;;;;;;;26.48;13.00;;;;;;;2.57;82.64;103612.81;5096595;28;20044;-67
2022/01/12 03:15:23;;;;;;;24.88;13.43;;;;;;;2.57;82.64;103618.03;5092878;28;20049;-67
2022/01/12 03:17:50;;;;;;;25.45;12.23;;;;;;;2.57;82.74;103618.03;5096394;28;20049;-67
2022/01/12 03:20:17;;;;;;;23.70;13.27;;;;;;;2.57;82.77;103616.28;5088755;28;20049;-67
2022/01/12 03:22:44;;;;;;;23.98;13.07;;;;;;;2.57;82.82;103621.50;5097001;28;20048;-73
2022/01/12 03:25:11;;;;;;;27.70;14.27;;;;;;;2.58;82.85;103631.09;5093845;28;20827;-65
2022/01/12 03:27:39;;;;;;;23.83;13.75;;;;;;;2.60;82.96;103633.78;5094087;28;20041;-70
2022/01/12 03:30:06;;;;;;;22.42;12.82;;;;;;;2.61;82.68;103628.66;5093763;28;20037;-72
2022/01/12 03:32:38;;;;;;;31.83;14.00;;;;;;;2.61;82.83;103633.88;5088506;28;20041;-69
2022/01/12 03:35:10;;;;;;;24.17;12.82;;;;;;;2.62;82.86;103630.44;5096755;28;20041;-68
2022/01/12 03:38:19;;;;;;;27.27;14.40;;;;;;;2.63;82.72;103626.13;5092062;28;20084;-69
2022/01/12 03:40:30;;;;;;;26.70;14.80;;;;;;;2.63;82.63;103634.84;5087221;28;20047;-67
2022/01/12 03:42:57;;;;;;;27.45;13.50;;;;;;;2.63;82.54;103629.63;5096400;28;20491;-73
2022/01/12 03:45:23;;;;;;;22.90;13.20;;;;;;;2.62;82.72;103632.13;5095529;28;20037;-69
2022/01/12 03:47:50;;;;;;;28.75;13.95;;;;;;;2.62;82.55;103635.66;5079241;28;20045;-75
2022/01/12 03:50:17;;;;;;;27.40;13.20;;;;;;;2.60;82.72;103637.28;5093622;28;20384;-68
2022/01/12 03:52:43;;;;;;;26.98;14.35;;;;;;;2.60;82.71;103631.16;5086082;28;20050;-68
2022/01/12 03:55:10;;;;;;;24.20;13.65;;;;;;;2.59;82.69;103635.50;5085563;28;20839;-71
2022/01/12 03:57:37;;;;;;;25.73;14.32;;;;;;;2.57;82.59;103636.25;5093842;28;20072;-68
2022/01/12 04:00:05;;;;;;;26.63;13.90;;;;;;;2.55;82.75;103627.47;5090538;28;20107;-69
2022/01/12 04:02:40;;;;;;;27.35;13.30;;;;;;;2.54;82.82;103639.63;5091678;28;20045;-68
2022/01/12 04:10:41;;;;;;;28.80;14.43;;;;;;;2.53;83.13;103656.06;5091146;28;20798;-73
2022/01/12 04:13:08;;;;;;;26.35;14.77;;;;;;;2.52;83.11;103654.25;5089432;28;20037;-66
2022/01/12 04:15:35;;;;;;;26.60;14.15;;;;;;;2.52;83.30;103658.56;5078530;28;20110;-70
2022/01/12 04:18:02;;;;;;;32.28;15.80;;;;;;;2.53;83.29;103656.06;5094934;28;20056;-70
2022/01/12 04:20:29;;;;;;;29.33;16.05;;;;;;;2.54;83.34;103651.72;5086664;28;20048;-67
2022/01/12 04:25:41;;;;;;;32.30;16.75;;;;;;;2.53;83.52;103658.66;5092285;28;20048;-68
2022/01/12 04:28:08;;;;;;;30.92;17.23;;;;;;;2.53;83.62;103657.75;5084394;28;20103;-71
2022/01/12 04:30:35;;;;;;;27.65;15.60;;;;;;;2.51;83.57;103649.88;5089141;28;20048;-72
2022/01/12 04:33:02;;;;;;;32.95;16.60;;;;;;;2.51;83.95;103647.28;5096941;28;20119;-77
2022/01/12 04:35:33;;;;;;;28.85;15.50;;;;;;;2.54;84.03;103662.16;5087503;28;20140;-75
2022/01/12 04:38:01;;;;;;;33.35;16.58;;;;;;;2.53;84.07;103656.06;5088008;28;20110;-70
2022/01/12 04:40:29;;;;;;;32.67;17.55;;;;;;;2.52;83.96;103648.16;5093048;28;20064;-73
2022/01/12 04:42:56;;;;;;;35.45;18.30;;;;;;;2.52;84.13;103643.84;5090586;28;20091;-65
2022/01/12 04:50:28;;;;;;;30.73;17.67;;;;;;;2.58;84.13;103623.28;5089624;28;20466;-66
2022/01/12 04:52:55;;;;;;;34.63;17.02;;;;;;;2.58;84.02;103609.41;5090016;28;20049;-69
2022/01/12 04:55:23;;;;;;;36.28;18.33;;;;;;;2.60;84.18;103615.53;5091944;28;20055;-69
2022/01/12 04:57:49;;;;;;;32.30;17.63;;;;;;;2.59;84.05;103609.44;5086905;28;20048;-71
2022/01/12 05:00:18;;;;;;;35.38;17.42;;;;;;;2.60;84.31;103625.97;5088770;28;20044;-71
2022/01/12 05:13:54;;;;;;;35.13;17.83;;;;;;;2.59;84.33;103634.63;5089677;28;20135;-72
2022/01/12 05:16:23;;;;;;;36.58;18.65;;;;;;;2.60;84.31;103642.50;5105365;28;20148;-68
2022/01/12 05:18:52;;;;;;;35.60;18.02;;;;;;;2.58;84.11;103632.84;5090006;28;20134;-68
2022/01/12 05:21:23;;;;;;;33.17;18.40;;;;;;;2.57;84.16;103637.13;5086478;28;20044;-68
2022/01/12 05:23:50;;;;;;;33.85;18.13;;;;;;;2.58;84.46;103638.03;5090245;28;20049;-68
2022/01/12 05:26:17;;;;;;;28.75;18.02;;;;;;;2.58;84.57;103643.25;5093930;28;20068;-68
2022/01/12 05:28:44;;;;;;;31.45;17.27;;;;;;;2.59;84.42;103643.31;5093087;28;20068;-69
2022/01/12 05:31:13;;;;;;;30.77;17.42;;;;;;;2.61;84.39;103648.59;5092849;28;20053;-69
2022/01/12 05:33:47;;;;;;;33.53;17.65;;;;;;;2.62;84.37;103653.88;5080727;28;20051;-71
2022/01/12 05:36:17;;;;;;;36.83;18.48;;;;;;;2.64;84.34;103654.88;5094565;28;20048;-67
2022/01/12 05:38:48;;;;;;;34.80;17.40;;;;;;;2.64;84.46;103654.88;5093062;28;20472;-69
2022/01/12 05:41:15;;;;;;;33.92;18.45;;;;;;;2.64;84.33;103657.47;5088176;28;20048;-67
2022/01/12 05:43:45;;;;;;;33.92;18.65;;;;;;;2.64;84.39;103654.88;5087777;28;20407;-72
2022/01/12 05:46:14;;;;;;;35.45;18.73;;;;;;;2.65;84.35;103666.16;5093821;28;20060;-66
2022/01/12 05:51:46;;;;;;;36.70;19.08;;;;;;;2.70;84.60;103655.97;5090544;28;20483;-67
2022/01/12 05:54:14;;;;;;;37.13;19.08;;;;;;;2.74;84.63;103658.78;5089968;28;20052;-74
2022/01/12 05:56:41;;;;;;;39.30;18.42;;;;;;;2.74;84.53;103656.19;5090401;28;20427;-66
2022/01/12 05:59:08;;;;;;;38.58;18.90;;;;;;;2.74;84.54;103652.69;5084769;28;20517;-73
2022/01/12 06:01:35;;;;;;;35.53;18.05;;;;;;;2.75;84.46;103655.34;5104470;28;20513;-71
2022/01/12 06:04:02;;;;;;;38.22;19.15;;;;;;;2.75;84.57;103650.16;5087362;28;20060;-66
2022/01/12 06:06:29;;;;;;;33.67;19.45;;;;;;;2.76;84.56;103657.16;5087943;28;20040;-67
2022/01/12 06:08:56;;;;;;;39.33;20.05;;;;;;;2.77;84.60;103656.34;5085745;28;20063;-69
2022/01/12 06:11:23;;;;;;;35.65;19.08;;;;;;;2.76;84.62;103659.75;5089862;28;20487;-66
2022/01/12 06:13:54;;;;;;;34.78;18.98;;;;;;;2.76;84.70;103667.56;5090782;28;20055;-71
2022/01/12 06:16:21;;;;;;;35.85;19.40;;;;;;;2.78;84.84;103663.31;5093236;28;20079;-67
2022/01/12 06:18:48;;;;;;;37.15;18.60;;;;;;;2.82;84.81;103660.84;5094174;28;20053;-73
2022/01/12 06:21:14;;;;;;;39.95;19.55;;;;;;;2.86;84.79;103674.09;5086188;28;20396;-65
2022/01/12 06:23:58;;;;;;;36.97;19.13;;;;;;;2.91;84.74;103677.81;5095041;28;20052;-64
2022/01/12 06:26:26;;;;;;;42.03;20.33;;;;;;;2.94;84.57;103679.66;5092765;28;20052;-71
2022/01/12 06:29:23;;;;;;;44.10;21.02;;;;;;;2.94;84.39;103677.97;5085762;28;20136;-66
2022/01/12 06:31:56;;;;;;;36.70;19.80;;;;;;;2.90;84.47;103690.78;5086835;28;20044;-70
2022/01/12 06:34:24;;;;;;;39.67;20.42;;;;;;;2.89;84.63;103699.44;5088263;28;20086;-67
2022/01/12 06:36:52;;;;;;;39.75;20.38;;;;;;;2.87;84.42;103695.84;5087639;28;20048;-68
2022/01/12 06:39:20;;;;;;;39.38;19.60;;;;;;;2.84;84.39;103708.72;5087310;28;20044;-69
2022/01/12 06:41:52;;;;;;;43.13;21.15;;;;;;;2.83;84.50;103704.31;5082575;28;20854;-68
2022/01/12 06:44:21;;;;;;;36.13;19.83;;;;;;;2.81;84.56;103714.69;5085690;28;20055;-69
2022/01/12 06:46:51;;;;;;;40.50;20.70;;;;;;;2.82;84.52;103715.56;5083496;28;20047;-71
2022/01/12 06:49:19;;;;;;;38.38;19.40;;;;;;;2.78;84.62;103723.25;5088571;28;20061;-68
2022/01/12 06:51:46;;;;;;;50.92;22.13;;;;;;;2.76;84.55;103731.78;5081514;28;20045;-68
2022/01/12 06:54:16;;;;;;;47.88;21.27;;;;;;;2.71;84.77;103741.13;5088287;28;20106;-69
2022/01/12 06:56:43;;;;;;;49.13;21.60;;;;;;;2.66;84.91;103738.28;5091238;28;20041;-68
2022/01/12 06:59:10;;;;;;;41.58;21.85;;;;;;;2.62;85.00;103738.94;5093002;28;20114;-69
2022/01/12 07:01:39;;;;;;;50.55;22.83;;;;;;;2.60;85.12;103746.69;5086046;28;20049;-69
2022/01/12 07:04:07;;;;;;;46.60;22.50;;;;;;;2.57;84.94;103748.25;5073693;28;20419;-69
2022/01/12 07:06:34;;;;;;;45.83;21.40;;;;;;;2.58;85.49;103760.47;5082173;28;20139;-72
2022/01/12 07:09:04;;;;;;;41.75;21.65;;;;;;;2.60;85.45;103748.38;5094264;28;20049;-68
2022/01/12 07:11:42;;;;;;;44.50;23.25;;;;;;;2.62;85.53;103747.66;5091486;28;20087;-68
2022/01/12 07:14:22;;;;;;;51.03;23.50;;;;;;;2.64;85.57;103761.66;5081810;28;20049;-68
2022/01/12 07:16:49;;;;;;;42.72;22.20;;;;;;;2.64;85.55;103758.16;5090468;28;20519;-68
2022/01/12 07:19:17;;;;;;;42.10;21.75;;;;;;;2.66;85.46;103759.13;5084988;28;20453;-67
2022/01/12 07:21:44;;;;;;;49.67;23.33;;;;;;;2.68;85.52;103760.09;5089173;28;20132;-70
2022/01/12 07:24:11;;;;;;;53.28;22.50;;;;;;;2.70;85.70;103760.16;5085507;28;20270;-69
2022/01/12 07:26:37;;;;;;;49.05;22.70;;;;;;;2.71;85.64;103765.44;5088373;28;20415;-72
2022/01/12 07:29:04;;;;;;;50.25;23.27;;;;;;;2.73;85.63;103770.75;5083472;28;20537;-68
2022/01/12 07:31:32;;;;;;;52.95;23.33;;;;;;;2.73;85.77;103774.22;5094435;28;20044;-67
2022/01/12 07:33:58;;;;;;;48.22;22.83;;;;;;;2.74;85.79;103768.22;5093311;28;20055;-68
2022/01/12 07:36:25;;;;;;;51.15;24.05;;;;;;;2.76;85.70;103773.47;5094072;28;20529;-72
2022/01/12 07:38:55;;;;;;;48.38;23.15;;;;;;;2.78;85.73;103772.75;5086658;28;20057;-67
2022/01/12 07:41:22;;;;;;;48.53;23.95;;;;;;;2.82;85.79;103785.91;5094588;28;20036;-69
2022/01/12 07:43:49;;;;;;;50.58;23.13;;;;;;;2.85;85.72;103780.88;5094649;28;20040;-67
2022/01/12 07:46:16;;;;;;;45.83;21.95;;;;;;;2.84;85.69;103784.28;5093008;28;20585;-70
2022/01/12 07:48:43;;;;;;;44.28;21.77;;;;;;;2.85;85.72;103786.97;5082829;28;20045;-70
2022/01/12 07:51:09;;;;;;;58.97;24.45;;;;;;;2.87;85.69;103785.31;5091279;28;20053;-69
2022/01/12 07:53:36;;;;;;;55.20;24.35;;;;;;;2.87;85.70;103787.94;5098109;28;20044;-68
2022/01/12 07:56:03;;;;;;;49.83;23.65;;;;;;;2.87;85.72;103790.53;5089076;28;20059;-68
2022/01/12 07:58:29;;;;;;;49.20;23.38;;;;;;;2.89;85.71;103803.66;5085472;28;20045;-68
2022/01/12 08:00:56;;;;;;;51.88;24.13;;;;;;;2.89;85.74;103801.06;5088626;28;20057;-72
2022/01/12 08:03:23;;;;;;;50.20;23.55;;;;;;;2.88;85.68;103813.19;5096908;28;20046;-72
2022/01/12 08:05:50;;;;;;;56.88;24.90;;;;;;;2.88;85.73;103822.72;5091974;28;20029;-71
2022/01/12 08:08:18;;;;;;;57.70;24.90;;;;;;;2.87;85.66;103820.94;5095982;28;20052;-72
2022/01/12 08:10:45;;;;;;;48.10;24.02;;;;;;;2.86;85.69;103813.94;5098117;28;20048;-72
2022/01/12 08:13:12;;;;;;;52.47;24.95;;;;;;;2.88;85.81;103833.16;5098354;28;20042;-72
2022/01/12 08:15:38;;;;;;;48.65;23.65;;;;;;;2.90;85.65;103841.94;5097651;28;20048;-71
2022/01/12 08:18:05;;;;;;;57.10;25.77;;;;;;;2.89;85.75;103840.16;5098172;28;20044;-73
2022/01/12 08:20:31;;;;;;;59.95;25.55;;;;;;;2.89;85.74;103845.38;5097227;28;20055;-72
2022/01/12 08:22:58;;;;;;;55.03;24.77;;;;;;;2.86;85.67;103853.91;5098121;28;20045;-70
2022/01/12 08:25:25;;;;;;;56.40;24.90;;;;;;;2.88;85.80;103854.00;5097711;28;20040;-73
2022/01/12 08:27:52;;;;;;;68.57;26.20;;;;;;;2.89;85.78;103853.19;5097512;28;20053;-73
2022/01/12 08:30:28;;;;;;;71.60;26.15;;;;;;;2.91;85.88;103847.22;5098275;28;20446;-73
2022/01/12 08:32:55;;;;;;;73.22;26.13;;;;;;;2.94;85.98;103862.13;5092547;28;20064;-72
2022/01/12 08:35:22;;;;;;;75.55;26.25;;;;;;;2.93;85.99;103865.53;5092776;28;20069;-73
2022/01/12 08:37:49;;;;;;;62.42;25.73;;;;;;;2.96;86.12;103876.13;5090360;28;20051;-72
2022/01/12 08:40:18;;;;;;;88.28;26.00;;;;;;;3.01;86.08;103876.34;5088863;28;20049;-73
2022/01/12 08:42:47;;;;;;;75.45;25.33;;;;;;;3.05;86.04;103868.75;5077381;28;20045;-73
2022/01/12 08:45:16;;;;;;;167.15;30.23;;;;;;;3.08;86.07;103862.78;5077474;28;20045;-73
2022/01/12 08:47:43;;;;;;;219.13;30.33;;;;;;;3.11;85.91;103861.22;5085861;28;20482;-74
2022/01/12 08:50:11;;;;;;;129.57;27.02;;;;;;;3.10;85.98;103867.25;5077496;28;20041;-71
2022/01/12 08:52:44;;;;;;;98.47;27.75;;;;;;;3.11;86.04;103866.44;5096800;28;20056;-70
2022/01/12 08:55:15;;;;;;;155.25;26.90;;;;;;;3.15;86.26;103862.28;5080806;28;20466;-73
2022/01/12 08:57:43;;;;;;;144.55;26.75;;;;;;;3.17;86.13;103855.41;5088912;28;20048;-73
2022/01/12 09:00:11;;;;;;;128.80;27.50;;;;;;;3.20;86.10;103855.56;5097033;28;20056;-74
2022/01/12 09:02:38;;;;;;;65.65;25.25;;;;;;;3.23;86.03;103852.22;5078864;28;20119;-73
2022/01/12 09:05:07;;;;;;;75.40;25.63;;;;;;;3.29;86.09;103862.97;5077298;28;20045;-72
2022/01/12 09:07:34;;;;;;;95.80;27.23;;;;;;;3.34;85.93;103850.16;5077299;28;20041;-72
2022/01/12 09:10:01;;;;;;;80.22;21.20;;;;;;;3.38;85.93;103852.97;5077982;28;20059;-67
2022/01/12 09:12:28;;;;;;;97.68;22.30;;;;;;;3.40;85.58;103848.72;5087015;28;20044;-67
2022/01/12 09:14:54;;;;;;;96.43;22.98;;;;;;;3.40;85.58;103869.59;5081703;28;20071;-68
2022/01/12 09:17:23;;;;;;;80.38;21.77;;;;;;;3.40;85.57;103871.28;5088849;28;20041;-68
2022/01/12 09:19:52;;;;;;;82.82;22.17;;;;;;;3.40;85.60;103885.25;5092415;28;20052;-69
2022/01/12 09:22:20;;;;;;;106.72;22.20;;;;;;;3.39;85.80;103879.94;5084476;28;20061;-67
2022/01/12 09:24:47;;;;;;;66.05;19.45;;;;;;;3.37;85.46;103884.19;5093148;28;20383;-69
2022/01/12 09:27:14;;;;;;;76.25;21.48;;;;;;;3.33;85.51;103892.69;5091949;28;20076;-70
2022/01/12 09:29:42;;;;;;;75.35;22.92;;;;;;;3.30;85.61;103897.75;5087726;28;20090;-73
2022/01/12 09:32:10;;;;;;;101.93;22.17;;;;;;;3.30;85.65;103905.56;5096285;28;20048;-68
2022/01/12 09:34:37;;;;;;;62.85;23.17;;;;;;;3.31;85.85;103903.03;5094675;28;20044;-69
2022/01/12 09:37:05;;;;;;;65.13;20.70;;;;;;;3.30;85.61;103909.09;5084225;28;20053;-68
2022/01/12 09:39:34;;;;;;;92.13;23.88;;;;;;;3.31;85.76;103912.56;5091557;28;20045;-68
2022/01/12 09:42:03;;;;;;;97.20;22.95;;;;;;;3.31;85.88;103920.41;5088138;28;20047;-73
2022/01/12 09:44:37;;;;;;;94.68;22.50;;;;;;;3.34;86.02;103917.97;5096053;28;20902;-68
2022/01/12 09:47:06;;;;;;;56.28;18.40;;;;;;;3.32;85.92;103927.41;5096131;28;20499;-71
2022/01/12 09:49:33;;;;;;;68.82;19.77;;;;;;;3.30;85.85;103935.16;5096032;28;20040;-70
2022/01/12 09:52:00;;;;;;;110.18;21.35;;;;;;;3.30;85.95;103934.25;5095753;28;20151;-69
2022/01/12 09:54:27;;;;;;;105.70;21.40;;;;;;;3.28;86.00;103941.09;5094799;28;20036;-68
2022/01/12 09:56:57;;;;;;;101.47;21.35;;;;;;;3.26;85.92;103952.34;5095855;28;20509;-67
2022/01/12 09:59:25;;;;;;;112.85;19.20;;;;;;;3.21;86.01;103948.63;5088735;28;20045;-68
2022/01/12 10:01:54;;;;;;;94.45;20.98;;;;;;;3.17;86.10;103949.28;5084844;28;20036;-67
2022/01/12 10:04:28;;;;;;;57.60;19.67;;;;;;;3.13;86.09;103951.66;5089595;28;20041;-68
2022/01/12 10:07:03;;;;;;;75.60;20.45;;;;;;;3.14;86.33;103948.22;5093845;28;20698;-71
2022/01/12 10:09:38;;;;;;;;;;;;;;;3.14;86.37;103946.53;5081150;28;20128;-69
2022/01/12 10:12:12;;;;;;;52.22;18.30;;;;;;;3.14;86.38;103937.81;5081639;28;19955;-67
2022/01/12 10:14:58;;;;;;;85.93;20.92;;;;;;;3.16;86.44;103947.50;5080740;28;20041;-68
2022/01/12 10:17:45;;;;;;;50.70;18.88;;;;;;;3.19;86.58;103949.38;5088005;28;20057;-67
2022/01/12 10:20:21;;;;;;;67.95;20.45;;;;;;;3.22;86.48;103944.28;5080740;28;20049;-69
2022/01/12 10:23:00;;;;;;;51.35;19.30;;;;;;;3.25;86.45;103945.38;5095620;28;20040;-72
2022/01/12 10:25:30;;;;;;;49.72;17.95;;;;;;;3.28;86.29;103947.22;5095900;28;20037;-72
2022/01/12 10:28:09;;;;;;;71.68;19.25;;;;;;;3.26;86.30;103949.75;5094640;28;20049;-69
2022/01/12 10:30:37;;;;;;;47.80;17.52;;;;;;;3.26;86.13;103949.75;5094760;28;20052;-68
2022/01/12 10:33:10;;;;;;;57.33;18.27;;;;;;;3.26;86.07;103948.84;5085124;28;20048;-68
2022/01/12 10:35:40;;;;;;;43.35;15.23;;;;;;;3.24;85.99;103960.91;5082535;28;20071;-71
2022/01/12 10:38:14;;;;;;;48.50;15.93;;;;;;;3.22;85.77;103962.53;5092495;28;20437;-68
2022/01/12 10:40:48;;;;;;;31.50;15.50;;;;;;;3.18;85.64;103968.44;5086587;28;20048;-69
2022/01/12 10:43:44;;;;;;;38.75;16.05;;;;;;;3.17;85.94;103969.25;5079804;28;20041;-69
2022/01/12 10:46:17;;;;;;;33.95;15.63;;;;;;;3.20;86.33;103967.69;5095233;28;20082;-68
2022/01/12 10:48:51;;;;;;;42.30;17.38;;;;;;;3.25;86.05;103970.53;5095891;28;20051;-68
2022/01/12 10:51:25;;;;;;;34.97;16.88;;;;;;;3.25;86.20;103968.84;5095393;28;20131;-68
2022/01/12 10:54:03;;;;;;;35.58;17.20;;;;;;;3.31;86.31;103967.34;5086978;28;20049;-69
2022/01/12 10:56:30;;;;;;;40.33;17.77;;;;;;;3.36;86.25;103960.63;5089199;28;20124;-72
2022/01/12 10:58:58;;;;;;;43.42;17.02;;;;;;;3.40;85.80;103959.97;5086116;28;20059;-68
2022/01/12 11:01:29;;;;;;;32.42;15.57;;;;;;;3.40;85.55;103962.59;5087509;28;20049;-72
2022/01/12 11:03:57;;;;;;;37.40;15.98;;;;;;;3.39;85.41;103952.97;5086900;28;20040;-68
2022/01/12 11:06:25;;;;;;;35.90;15.50;;;;;;;3.39;85.11;103950.34;5091357;28;20495;-67
2022/01/12 11:08:52;;;;;;;36.42;15.52;;;;;;;3.36;85.00;103955.41;5094979;28;20059;-69
2022/01/12 11:11:20;;;;;;;31.20;15.70;;;;;;;3.35;85.00;103953.66;5087150;28;20044;-72
2022/01/12 11:13:50;;;;;;;32.88;15.10;;;;;;;3.33;85.12;103953.56;5095121;28;20040;-68
2022/01/12 11:16:26;;;;;;;34.17;14.93;;;;;;;3.34;85.28;103965.78;5094245;28;20371;-70
2022/01/12 11:18:55;;;;;;;33.72;14.75;;;;;;;3.35;85.31;103969.31;5086796;28;20831;-69
2022/01/12 11:21:31;;;;;;;30.40;14.60;;;;;;;3.32;84.96;103964.81;5086481;28;20049;-73
2022/01/12 11:23:58;;;;;;;34.90;15.65;;;;;;;3.33;85.18;103968.31;5086377;28;20040;-69
2022/01/12 11:26:29;;;;;;;31.88;14.85;;;;;;;3.35;84.89;103967.56;5087724;28;20463;-69
2022/01/12 11:28:58;;;;;;;32.58;14.73;;;;;;;3.36;84.67;103963.22;5098564;28;20410;-71
2022/01/12 11:31:34;;;;;;;31.20;15.20;;;;;;;3.35;84.65;103967.56;5098201;28;20044;-73
2022/01/12 11:34:01;;;;;;;32.88;14.88;;;;;;;3.38;84.74;103975.56;5093442;28;20102;-68
2022/01/12 11:36:36;;;;;;;33.13;15.98;;;;;;;3.42;84.76;103977.47;5098499;28;20049;-69
2022/01/12 11:39:17;;;;;;;33.65;16.05;;;;;;;3.47;84.54;103966.41;5098613;28;20044;-70
2022/01/12 11:41:48;;;;;;;37.63;17.30;;;;;;;3.49;84.75;103967.38;5098439;28;20063;-70
2022/01/12 11:44:22;;;;;;;41.80;18.23;;;;;;;3.51;84.44;103953.56;5098609;28;20075;-68
2022/01/12 11:46:54;;;;;;;;;;;;;;;3.49;84.55;103947.38;5092814;28;20041;-71
2022/01/12 11:49:43;;;;;;;34.55;16.40;;;;;;;3.51;84.44;103937.03;5096581;28;20370;-69
2022/01/12 11:52:24;;;;;;;41.97;16.83;;;;;;;3.54;84.49;103937.16;5098179;28;20045;-72
2022/01/12 11:55:01;;;;;;;33.53;16.67;;;;;;;3.55;84.28;103939.88;5098881;28;20060;-70
2022/01/12 11:57:38;;;;;;;35.63;16.67;;;;;;;3.57;84.30;103940.81;5098206;28;20067;-74
2022/01/12 12:00:13;;;;;;;35.72;16.75;;;;;;;3.58;84.01;103937.38;5089168;28;20053;-69
2022/01/12 12:02:47;;;;;;;31.77;15.35;;;;;;;3.62;84.15;103941.03;5098202;28;20047;-71
2022/01/12 12:05:18;;;;;;;35.10;15.88;;;;;;;3.63;83.87;103941.94;5095525;28;20466;-71
2022/01/12 12:07:53;;;;;;;30.95;16.63;;;;;;;3.66;83.80;103944.72;5093837;28;20191;-72
2022/01/12 12:10:26;;;;;;;36.17;16.15;;;;;;;3.69;83.75;103947.44;5094836;28;20148;-73
2022/01/12 12:12:58;;;;;;;33.17;16.08;;;;;;;3.70;83.52;103947.56;5098204;28;20137;-70
2022/01/12 12:15:26;;;;;;;34.72;17.38;;;;;;;3.72;83.51;103955.44;5088058;28;20053;-70
2022/01/12 12:17:58;;;;;;;37.45;17.38;;;;;;;3.72;83.63;103956.31;5091487;28;20124;-71
2022/01/12 12:20:25;;;;;;;34.33;17.30;;;;;;;3.77;83.62;103960.88;5097666;28;20052;-70
2022/01/12 12:22:55;;;;;;;36.30;17.10;;;;;;;3.80;83.57;103968.88;5092893;28;20041;-69
2022/01/12 12:25:28;;;;;;;33.88;15.43;;;;;;;3.80;83.43;103968.88;5085766;28;20045;-68
2022/01/12 12:28:03;;;;;;;34.92;17.10;;;;;;;3.81;83.65;103965.44;5086402;28;20048;-69
2022/01/12 12:30:34;;;;;;;34.80;16.85;;;;;;;3.83;83.63;103971.59;5085880;28;20049;-68
2022/01/12 12:33:12;;;;;;;38.50;16.90;;;;;;;3.85;83.51;103962.13;5086299;28;20053;-72
2022/01/12 12:35:42;;;;;;;34.13;16.75;;;;;;;3.87;84.18;103950.06;5096361;28;20045;-72
2022/01/12 12:38:15;;;;;;;33.72;15.82;;;;;;;3.91;83.26;103948.47;5096787;28;20048;-68
2022/01/12 12:40:54;;;;;;;29.90;14.60;;;;;;;3.92;83.55;103932.88;5093540;28;20148;-68
2022/01/12 12:43:28;;;;;;;30.65;15.00;;;;;;;3.92;82.98;103939.84;5096882;28;20438;-68
2022/01/12 12:46:11;;;;;;;30.10;15.70;;;;;;;3.86;82.42;103936.13;5097617;28;20135;-68
2022/01/12 12:48:43;;;;;;;28.00;14.82;;;;;;;3.81;82.34;103942.81;5095956;28;20076;-65
2022/01/12 12:51:14;;;;;;;28.85;14.23;;;;;;;3.78;82.53;103924.41;5084286;27;20053;-70
2022/01/12 12:53:47;;;;;;;33.75;15.05;;;;;;;3.80;82.72;103924.50;5094705;28;20048;-70
2022/01/12 12:56:19;;;;;;;29.35;14.30;;;;;;;3.80;82.60;103927.09;5097557;28;20076;-69